createdAt,value
2023-04-09T00:03:49.244Z,8.40
2023-04-09T00:08:51.737Z,8.40
2023-04-09T00:13:54.280Z,8.30
2023-04-09T00:18:56.752Z,8.30
2023-04-09T00:23:59.074Z,8.30
2023-04-09T00:29:01.493Z,8.30
2023-04-09T00:34:03.865Z,8.30
2023-04-09T00:39:06.125Z,8.30
2023-04-09T00:44:08.965Z,8.30
2023-04-09T00:49:11.281Z,8.30
2023-04-09T00:54:14.259Z,8.30
2023-04-09T00:59:16.785Z,8.30
2023-04-09T01:04:19.655Z,8.30
2023-04-09T01:09:28.533Z,8.30
2023-04-09T01:14:38.876Z,8.30
2023-04-09T01:19:58.622Z,8.30
2023-04-09T01:25:09.992Z,8.20
2023-04-09T01:30:18.970Z,8.30
2023-04-09T01:35:22.137Z,8.20
2023-04-09T01:40:27.246Z,8.30
2023-04-09T01:45:29.623Z,8.30
2023-04-09T01:50:33.135Z,8.30
2023-04-09T01:55:36.070Z,8.30
2023-04-09T02:00:47.493Z,8.30
2023-04-09T02:05:57.415Z,8.10
2023-04-09T02:11:03.435Z,8.00
2023-04-09T02:16:06.662Z,7.90
2023-04-09T02:21:10.999Z,8.00
2023-04-09T02:26:13.664Z,8.10
2023-04-09T02:31:16.472Z,8.20
2023-04-09T02:36:18.856Z,8.00
2023-04-09T02:41:21.239Z,8.10
2023-04-09T02:46:23.622Z,8.10
2023-04-09T02:51:26.767Z,8.00
2023-04-09T02:56:29.214Z,8.10
2023-04-09T03:01:31.696Z,8.10
2023-04-09T03:06:34.519Z,8.00
2023-04-09T03:11:36.965Z,8.00
2023-04-09T03:16:39.310Z,8.00
2023-04-09T03:21:41.568Z,8.10
2023-04-09T03:26:43.922Z,8.00
2023-04-09T03:31:48.950Z,7.90
2023-04-09T03:36:51.491Z,8.00
2023-04-09T03:42:06.117Z,7.90
2023-04-09T03:47:17.863Z,7.90
2023-04-09T03:52:20.577Z,7.80
2023-04-09T03:57:32.131Z,7.70
2023-04-09T04:02:34.718Z,7.50
2023-04-09T04:07:43.247Z,7.50
2023-04-09T04:12:49.869Z,7.50
2023-04-09T04:17:59.330Z,7.50
2023-04-09T04:23:23.754Z,7.60
2023-04-09T04:28:32.846Z,7.80
2023-04-09T04:33:35.702Z,7.80
2023-04-09T04:38:44.143Z,7.70
2023-04-09T04:43:53.111Z,7.60
2023-04-09T04:48:58.361Z,7.50
2023-04-09T04:54:01.966Z,7.40
2023-04-09T04:59:05.284Z,7.50
2023-04-09T05:04:19.620Z,7.60
2023-04-09T05:09:22.538Z,7.70
2023-04-09T05:14:36.292Z,7.80
2023-04-09T05:19:38.611Z,7.80
2023-04-09T05:24:41.578Z,7.90
2023-04-09T05:29:44.976Z,7.70
2023-04-09T05:34:47.801Z,7.60
2023-04-09T05:39:50.944Z,7.60
2023-04-09T05:44:53.413Z,7.70
2023-04-09T05:49:56.920Z,7.90
2023-04-09T05:54:59.492Z,8.10
2023-04-09T06:00:15.382Z,8.50
2023-04-09T06:05:22.140Z,8.60
2023-04-09T06:10:24.806Z,8.50
2023-04-09T06:15:28.096Z,8.40
2023-04-09T06:20:30.642Z,8.40
2023-04-09T06:25:33.019Z,8.50
2023-04-09T06:30:36.972Z,8.50
2023-04-09T06:35:39.360Z,8.60
2023-04-09T06:40:42.435Z,8.70
2023-04-09T06:45:44.823Z,8.80
2023-04-09T06:50:47.152Z,8.90
2023-04-09T06:55:49.623Z,9.00
2023-04-09T07:00:52.337Z,9.20
2023-04-09T07:05:55.480Z,9.30
2023-04-09T07:10:57.958Z,9.40
2023-04-09T07:16:00.453Z,9.40
2023-04-09T07:21:03.970Z,9.60
2023-04-09T07:26:07.129Z,9.70
2023-04-09T07:31:09.522Z,9.70
2023-04-09T07:36:11.866Z,9.90
2023-04-09T07:41:14.528Z,10.10
2023-04-09T07:46:21.875Z,9.90
2023-04-09T07:51:25.222Z,10.00
2023-04-09T07:56:27.476Z,10.20
2023-04-09T08:01:30.088Z,10.30
2023-04-09T08:06:32.347Z,10.50
2023-04-09T08:11:34.643Z,10.60
2023-04-09T08:16:37.043Z,10.60
2023-04-09T08:21:43.118Z,10.80
2023-04-09T08:26:45.732Z,11.00
2023-04-09T08:31:48.282Z,11.00
2023-04-09T08:36:50.774Z,11.00
2023-04-09T08:41:53.588Z,11.10
2023-04-09T08:46:57.640Z,10.90
2023-04-09T08:52:01.511Z,11.20
2023-04-09T08:57:06.857Z,11.60
2023-04-09T09:02:11.332Z,11.60
2023-04-09T09:07:14.947Z,11.70
2023-04-09T09:12:35.320Z,11.60
2023-04-09T09:17:54.910Z,11.40
2023-04-09T09:22:57.670Z,11.30
2023-04-09T09:28:08.997Z,11.30
2023-04-09T09:33:11.981Z,11.40
2023-04-09T09:38:15.949Z,11.60
2023-04-09T09:43:18.255Z,11.60
2023-04-09T09:48:20.575Z,12.00
2023-04-09T09:53:25.082Z,12.10
2023-04-09T09:58:40.922Z,12.30
2023-04-09T10:03:46.420Z,12.40
2023-04-09T10:08:50.098Z,12.40
2023-04-09T10:14:02.164Z,12.60
2023-04-09T10:19:05.019Z,12.80
2023-04-09T10:24:09.107Z,12.70
2023-04-09T10:29:16.618Z,12.70
2023-04-09T10:34:27.037Z,12.70
2023-04-09T10:39:32.047Z,12.80
2023-04-09T10:44:36.085Z,13.10
2023-04-09T10:49:40.287Z,13.20
2023-04-09T10:54:46.694Z,13.50
2023-04-09T10:59:51.743Z,13.60
2023-04-09T11:05:15.922Z,13.80
2023-04-09T11:10:21.987Z,14.10
2023-04-09T11:15:24.292Z,14.50
2023-04-09T11:20:26.952Z,15.20
2023-04-09T11:25:31.374Z,15.40
2023-04-09T11:30:34.509Z,15.70
2023-04-09T11:35:37.297Z,16.10
2023-04-09T11:40:48.746Z,16.90
2023-04-09T11:45:51.540Z,17.30
2023-04-09T11:50:54.117Z,17.50
2023-04-09T11:55:56.633Z,17.50
2023-04-09T12:00:59.360Z,17.60
2023-04-09T12:06:04.022Z,18.10
2023-04-09T12:11:13.457Z,18.90
2023-04-09T12:16:20.737Z,19.00
2023-04-09T12:21:27.109Z,19.40
2023-04-09T12:26:29.366Z,19.40
2023-04-09T12:31:31.692Z,19.50
2023-04-09T12:36:33.926Z,19.20
2023-04-09T12:41:36.494Z,19.00
2023-04-09T12:46:38.774Z,18.50
2023-04-09T12:51:41.690Z,17.70
2023-04-09T12:56:43.938Z,17.30
2023-04-09T13:01:46.499Z,17.40
2023-04-09T13:06:50.152Z,17.50
2023-04-09T13:11:52.512Z,17.70
2023-04-09T13:16:54.848Z,18.70
2023-04-09T13:21:57.220Z,18.60
2023-04-09T13:26:59.551Z,18.30
2023-04-09T13:32:06.862Z,18.10
2023-04-09T13:37:09.232Z,17.70
2023-04-09T13:42:14.161Z,17.40
2023-04-09T13:47:17.652Z,17.20
2023-04-09T13:52:20.013Z,17.10
2023-04-09T13:57:22.378Z,16.80
2023-04-09T14:02:24.842Z,16.80
2023-04-09T14:07:27.481Z,16.90
2023-04-09T14:12:29.806Z,17.10
2023-04-09T14:17:32.110Z,17.10
2023-04-09T14:22:34.453Z,17.20
2023-04-09T14:27:37.168Z,17.20
2023-04-09T14:32:39.625Z,17.20
2023-04-09T14:37:42.143Z,16.90
2023-04-09T14:42:46.184Z,17.00
2023-04-09T14:47:48.486Z,17.10
2023-04-09T14:52:51.261Z,17.20
2023-04-09T14:57:53.736Z,17.10
2023-04-09T15:02:56.444Z,17.40
2023-04-09T15:07:59.362Z,17.70
2023-04-09T15:13:01.684Z,17.30
2023-04-09T15:18:06.261Z,18.60
2023-04-09T15:23:09.215Z,19.60
2023-04-09T15:28:11.593Z,18.90
2023-04-09T15:33:13.912Z,18.00
2023-04-09T15:38:17.168Z,17.60
2023-04-09T15:43:19.528Z,17.70
2023-04-09T15:48:21.904Z,17.70
2023-04-09T15:53:27.176Z,17.50
2023-04-09T15:58:29.469Z,16.90
2023-04-09T16:03:36.901Z,16.60
2023-04-09T16:08:40.547Z,16.80
2023-04-09T16:13:42.925Z,16.70
2023-04-09T16:18:45.250Z,16.50
2023-04-09T16:23:47.691Z,16.40
2023-04-09T16:28:50.056Z,16.10
2023-04-09T16:33:52.421Z,15.90
2023-04-09T16:38:54.718Z,15.50
2023-04-09T16:43:57.022Z,15.10
2023-04-09T16:48:59.301Z,14.80
2023-04-09T16:54:01.748Z,14.80
2023-04-09T16:59:04.231Z,14.50
2023-04-09T17:04:06.784Z,14.50
2023-04-09T17:09:09.716Z,14.40
2023-04-09T17:14:12.123Z,14.30
2023-04-09T17:19:14.618Z,14.10
2023-04-09T17:24:17.024Z,13.70
2023-04-09T17:29:19.349Z,13.40
2023-04-09T17:34:21.654Z,13.30
2023-04-09T17:39:24.451Z,13.20
2023-04-09T17:44:26.822Z,12.90
2023-04-09T17:49:32.417Z,12.70
2023-04-09T17:54:35.256Z,12.30
2023-04-09T17:59:38.381Z,12.20
2023-04-09T18:04:41.721Z,12.10
2023-04-09T18:09:44.712Z,11.90
2023-04-09T18:14:49.243Z,11.80
2023-04-09T18:19:54.183Z,11.90
2023-04-09T18:24:56.741Z,11.70
2023-04-09T18:29:59.399Z,11.50
2023-04-09T18:35:01.747Z,11.80
2023-04-09T18:40:04.352Z,11.90
2023-04-09T18:45:08.260Z,11.90
2023-04-09T18:50:12.391Z,11.70
2023-04-09T18:55:14.774Z,11.60
2023-04-09T19:00:17.315Z,11.60
2023-04-09T19:05:19.863Z,11.40
2023-04-09T19:10:22.295Z,11.40
2023-04-09T19:15:26.742Z,11.20
2023-04-09T19:20:29.003Z,11.00
2023-04-09T19:25:31.371Z,11.00
2023-04-09T19:30:33.665Z,11.00
2023-04-09T19:35:40.396Z,11.00
2023-04-09T19:40:43.122Z,11.00
2023-04-09T19:45:45.609Z,10.80
2023-04-09T19:50:48.949Z,10.70
2023-04-09T19:55:51.722Z,10.70
2023-04-09T20:00:54.932Z,10.80
2023-04-09T20:05:57.335Z,10.70
2023-04-09T20:11:00.152Z,10.90
2023-04-09T20:16:02.482Z,11.00
2023-04-09T20:21:05.078Z,11.00
2023-04-09T20:26:11.186Z,11.00
2023-04-09T20:31:13.607Z,11.00
2023-04-09T20:36:19.308Z,11.00
2023-04-09T20:41:21.684Z,10.90
2023-04-09T20:46:23.980Z,10.70
2023-04-09T20:51:26.227Z,10.70
2023-04-09T20:56:29.802Z,10.70
2023-04-09T21:01:32.334Z,10.70
2023-04-09T21:06:34.852Z,10.50
2023-04-09T21:11:37.685Z,10.50
2023-04-09T21:16:40.005Z,10.50
2023-04-09T21:21:42.342Z,10.50
2023-04-09T21:26:51.489Z,10.50
2023-04-09T21:31:54.575Z,10.70
2023-04-09T21:36:56.849Z,10.60
2023-04-09T21:41:59.131Z,10.50
2023-04-09T21:47:01.850Z,10.50
2023-04-09T21:52:04.203Z,10.20
2023-04-09T21:57:06.682Z,10.20
2023-04-09T22:02:09.619Z,10.10
2023-04-09T22:07:12.012Z,9.90
2023-04-09T22:12:14.426Z,9.60
2023-04-09T22:17:17.188Z,9.30
2023-04-09T22:22:19.453Z,9.00
2023-04-09T22:27:21.791Z,8.90
2023-04-09T22:32:24.167Z,8.70
2023-04-09T22:37:27.702Z,8.50
2023-04-09T22:42:29.988Z,8.30
2023-04-09T22:47:32.271Z,8.10
2023-04-09T22:52:34.539Z,8.30
2023-04-09T22:57:38.312Z,7.90
2023-04-09T23:02:40.823Z,7.90
2023-04-09T23:07:45.038Z,8.10
2023-04-09T23:12:47.752Z,7.90
2023-04-09T23:17:52.000Z,7.60
2023-04-09T23:22:54.492Z,7.40
2023-04-09T23:27:56.721Z,7.10
2023-04-09T23:32:59.024Z,7.00
2023-04-09T23:38:01.320Z,7.20
2023-04-09T23:43:03.678Z,7.40
2023-04-09T23:48:07.493Z,7.20
2023-04-09T23:53:09.895Z,6.80
2023-04-09T23:58:12.971Z,6.90
